Terminal Aerodrome Forecast
Issued by NWS Wilmington, OH

Current Version | Previous Version | Graphics & Text | Print | Product List | Glossary On
Versions: 1 2 3 4 5 6 7 8 9 10 11 12 13 14 15 16 17 18 19 20
000
FTUS41 KILN 291700
TAFCVG
TAF
KCVG 291739Z 2918/3024 14008KT P6SM FEW050 SCT250
     FM292100 14007KT P6SM VCSH SCT050 BKN250
     FM300000 14005KT P6SM SCT050 BKN250
     FM300600 16005KT P6SM SCT200
     FM301200 19008KT P6SM BKN060
     FM301800 21010G18KT P6SM VCTS BKN050CB
     FM302300 21006KT P6SM VCSH SCT025 OVC120=

USA.gov is the U.S. government's official web portal to all federal, state and local government web resources and services.